Time;durP1;ratioP1;P1;durP2;ratioP2;P2;SDS_P1;SDS_P2;PMS_P1;PMS_P2;Temp;Humidity;BMP_temperature;BMP_pressure;BME280_temperature;BME280_humidity;BME280_pressure;Samples;Min_cycle;Max_cycle;Signal;HPM_P1;HPM_P2
2020/12/29 00:00:00;;;;;;;7.80;3.50;;;;;;;;;;5056346;28;20111;-56
2020/12/29 00:02:27;;;;;;;11.37;3.13;;;;;;;;;;5056264;28;20029;-56
2020/12/29 00:04:54;;;;;;;11.43;3.80;;;;;;;;;;5056430;28;20025;-56
2020/12/29 00:07:20;;;;;;;6.57;3.20;;;;;;;;;;5056223;28;20033;-57
2020/12/29 00:09:47;;;;;;;7.37;3.03;;;;;;;;;;5055025;28;20043;-57
2020/12/29 00:12:14;;;;;;;12.07;3.00;;;;;;;;;;5056180;28;20029;-57
2020/12/29 00:14:41;;;;;;;4.87;2.50;;;;;;;;;;5056073;28;20513;-56
2020/12/29 00:17:08;;;;;;;4.10;2.37;;;;;;;;;;5056154;28;20059;-56
2020/12/29 00:19:34;;;;;;;4.63;2.27;;;;;;;;;;5038031;28;20501;-56
2020/12/29 00:22:03;;;;;;;8.57;2.80;;;;;;;;;;5055865;28;20033;-57
2020/12/29 00:24:30;;;;;;;3.57;2.00;;;;;;;;;;5055890;28;20033;-56
2020/12/29 00:26:57;;;;;;;6.80;2.90;;;;;;;;;;5055992;28;20533;-56
2020/12/29 00:29:24;;;;;;;5.00;2.57;;;;;;;;;;5055689;28;20518;-56
2020/12/29 00:31:51;;;;;;;4.90;2.30;;;;;;;;;;5055779;28;20108;-56
2020/12/29 00:34:17;;;;;;;7.30;2.90;;;;;;;;;;5055756;28;20048;-56
2020/12/29 00:36:44;;;;;;;5.23;2.73;;;;;;;;;;5055815;28;20090;-56
2020/12/29 00:39:11;;;;;;;4.50;2.70;;;;;;;;;;5055635;28;20029;-56
2020/12/29 00:41:44;;;;;;;10.53;4.13;;;;;;;;;;5055767;28;20021;-56
2020/12/29 00:44:10;;;;;;;6.33;3.87;;;;;;;;;;5055506;28;20391;-56
2020/12/29 00:46:37;;;;;;;7.87;4.10;;;;;;;;;;5055536;28;20063;-56
2020/12/29 00:49:04;;;;;;;7.00;3.80;;;;;;;;;;5054135;28;20111;-56
2020/12/29 00:51:31;;;;;;;8.57;3.63;;;;;;;;;;5055616;28;20488;-57
2020/12/29 00:53:58;;;;;;;10.47;2.77;;;;;;;;;;5055512;28;20028;-57
2020/12/29 00:56:24;;;;;;;10.27;3.20;;;;;;;;;;5055574;28;20116;-57
2020/12/29 00:58:51;;;;;;;11.27;3.87;;;;;;;;;;5055195;28;20032;-56
2020/12/29 01:01:18;;;;;;;7.60;2.90;;;;;;;;;;5055297;28;20075;-57
2020/12/29 01:03:45;;;;;;;7.83;2.33;;;;;;;;;;5055221;28;20408;-56
2020/12/29 01:06:12;;;;;;;7.87;3.50;;;;;;;;;;5055189;28;20104;-56
2020/12/29 01:08:39;;;;;;;10.03;3.30;;;;;;;;;;5055026;28;20067;-56
2020/12/29 01:11:06;;;;;;;11.83;3.47;;;;;;;;;;5055100;28;20025;-56
2020/12/29 01:13:33;;;;;;;7.67;3.07;;;;;;;;;;5055174;28;20032;-56
2020/12/29 01:15:59;;;;;;;9.70;3.00;;;;;;;;;;5055080;28;20481;-56
2020/12/29 01:18:26;;;;;;;16.33;4.43;;;;;;;;;;5055671;28;20029;-56
2020/12/29 01:20:53;;;;;;;16.10;4.10;;;;;;;;;;5054947;28;20055;-57
2020/12/29 01:23:20;;;;;;;11.10;4.57;;;;;;;;;;5055160;28;20033;-56
2020/12/29 01:25:48;;;;;;;8.80;4.10;;;;;;;;;;5054812;28;20029;-56
2020/12/29 01:28:15;;;;;;;6.03;3.87;;;;;;;;;;5054773;28;20029;-56
2020/12/29 01:30:43;;;;;;;14.73;4.13;;;;;;;;;;5054662;28;20028;-57
2020/12/29 01:33:10;;;;;;;19.03;5.30;;;;;;;;;;5054795;28;20028;-57
2020/12/29 01:35:36;;;;;;;8.10;3.40;;;;;;;;;;5054663;28;20566;-57
2020/12/29 01:38:05;;;;;;;10.27;2.80;;;;;;;;;;5054537;28;20087;-56
2020/12/29 01:40:32;;;;;;;8.40;3.87;;;;;;;;;;5054640;28;20025;-56
2020/12/29 01:42:59;;;;;;;8.00;3.80;;;;;;;;;;5054570;28;20032;-56
2020/12/29 01:45:27;;;;;;;8.10;3.43;;;;;;;;;;5054420;28;20031;-57
2020/12/29 01:47:54;;;;;;;7.80;3.50;;;;;;;;;;5054468;28;20052;-57
2020/12/29 01:50:25;;;;;;;10.50;3.73;;;;;;;;;;5054363;28;20463;-57
2020/12/29 01:52:59;;;;;;;12.37;3.73;;;;;;;;;;5054450;28;20028;-56
2020/12/29 01:55:26;;;;;;;12.00;3.20;;;;;;;;;;5054260;28;20388;-57
2020/12/29 01:57:53;;;;;;;7.87;3.20;;;;;;;;;;5054303;28;20025;-57
2020/12/29 02:00:20;;;;;;;6.93;3.57;;;;;;;;;;5053841;28;20502;-57
2020/12/29 02:02:47;;;;;;;11.93;3.50;;;;;;;;;;5054133;28;20025;-57
2020/12/29 02:05:14;;;;;;;9.80;3.47;;;;;;;;;;5054153;28;20025;-57
2020/12/29 02:07:41;;;;;;;19.37;4.20;;;;;;;;;;5054101;28;20040;-57
2020/12/29 02:10:08;;;;;;;10.73;4.00;;;;;;;;;;5053780;28;20116;-57
2020/12/29 02:12:35;;;;;;;12.83;3.47;;;;;;;;;;5053900;28;20021;-57
2020/12/29 02:15:04;;;;;;;14.00;4.50;;;;;;;;;;5053841;28;20024;-57
2020/12/29 02:17:31;;;;;;;13.90;4.40;;;;;;;;;;5036000;28;20021;-57
2020/12/29 02:19:58;;;;;;;5.97;2.90;;;;;;;;;;5053838;28;20040;-57
2020/12/29 02:22:25;;;;;;;7.03;3.33;;;;;;;;;;5053734;28;20031;-57
2020/12/29 02:24:53;;;;;;;12.40;4.00;;;;;;;;;;5053957;28;20017;-57
2020/12/29 02:27:21;;;;;;;7.13;3.60;;;;;;;;;;5053765;28;20082;-57
2020/12/29 02:29:48;;;;;;;4.50;2.67;;;;;;;;;;5053382;28;20033;-57
2020/12/29 02:32:15;;;;;;;9.60;3.53;;;;;;;;;;5053442;28;20021;-57
2020/12/29 02:34:42;;;;;;;7.33;3.67;;;;;;;;;;5053395;28;20039;-57
2020/12/29 02:37:10;;;;;;;6.27;2.83;;;;;;;;;;5053361;28;20025;-57
2020/12/29 02:39:41;;;;;;;7.73;2.67;;;;;;;;;;5053410;28;20025;-57
2020/12/29 02:42:08;;;;;;;7.00;3.33;;;;;;;;;;5053323;28;20028;-57
2020/12/29 02:44:35;;;;;;;6.23;3.50;;;;;;;;;;5053437;28;20017;-57
2020/12/29 02:47:03;;;;;;;5.97;3.47;;;;;;;;;;5053405;28;20025;-57
2020/12/29 02:49:29;;;;;;;10.07;3.30;;;;;;;;;;5052992;28;20086;-56
2020/12/29 02:51:56;;;;;;;19.93;4.60;;;;;;;;;;5053267;28;20045;-56
2020/12/29 02:54:24;;;;;;;18.97;4.60;;;;;;;;;;5053114;28;20029;-56
2020/12/29 02:56:51;;;;;;;12.13;3.67;;;;;;;;;;5053351;28;20029;-57
2020/12/29 02:59:18;;;;;;;8.83;3.83;;;;;;;;;;5053120;28;20028;-56
2020/12/29 03:01:44;;;;;;;12.23;3.30;;;;;;;;;;5052936;28;20361;-57
2020/12/29 03:04:11;;;;;;;14.33;4.33;;;;;;;;;;5052976;28;20364;-57
2020/12/29 03:06:38;;;;;;;6.83;3.70;;;;;;;;;;5053012;28;20036;-56
2020/12/29 03:09:05;;;;;;;27.27;5.40;;;;;;;;;;5052846;28;20033;-56
2020/12/29 03:11:33;;;;;;;9.80;3.43;;;;;;;;;;5052298;28;20418;-57
2020/12/29 03:14:04;;;;;;;10.23;4.03;;;;;;;;;;5053003;28;20025;-57
2020/12/29 03:16:31;;;;;;;9.77;3.50;;;;;;;;;;5052799;28;20095;-56
2020/12/29 03:18:57;;;;;;;7.37;3.40;;;;;;;;;;5052929;28;20021;-56
2020/12/29 03:21:24;;;;;;;12.47;3.53;;;;;;;;;;5052861;28;20112;-56
2020/12/29 03:23:52;;;;;;;9.80;3.30;;;;;;;;;;5052712;28;20087;-56
2020/12/29 03:26:19;;;;;;;17.43;3.80;;;;;;;;;;5052850;28;20032;-56
2020/12/29 03:28:46;;;;;;;19.30;4.43;;;;;;;;;;5052543;28;20025;-56
2020/12/29 03:31:13;;;;;;;9.77;2.67;;;;;;;;;;5052657;28;20116;-56
2020/12/29 03:33:40;;;;;;;9.90;2.60;;;;;;;;;;5052761;28;20025;-56
2020/12/29 03:36:07;;;;;;;8.03;3.17;;;;;;;;;;5052623;28;20098;-57
2020/12/29 03:38:33;;;;;;;12.67;3.30;;;;;;;;;;5052682;28;20044;-56
2020/12/29 03:41:00;;;;;;;5.90;2.77;;;;;;;;;;5052556;28;20021;-56
2020/12/29 03:43:27;;;;;;;8.27;2.93;;;;;;;;;;5052892;28;20639;-56
2020/12/29 03:45:54;;;;;;;6.03;2.67;;;;;;;;;;5052627;28;20609;-56
2020/12/29 03:48:22;;;;;;;8.40;2.77;;;;;;;;;;5052779;28;20284;-56
2020/12/29 03:50:49;;;;;;;5.80;2.23;;;;;;;;;;5052629;28;20363;-56
2020/12/29 03:53:16;;;;;;;5.27;2.13;;;;;;;;;;5052452;28;20577;-56
2020/12/29 03:55:43;;;;;;;5.57;2.13;;;;;;;;;;5052543;28;20305;-56
2020/12/29 03:58:10;;;;;;;6.03;2.57;;;;;;;;;;5052375;28;20258;-56
2020/12/29 04:00:37;;;;;;;7.97;2.83;;;;;;;;;;5051380;28;20376;-56
2020/12/29 04:03:05;;;;;;;6.20;2.40;;;;;;;;;;5052654;28;20245;-56
2020/12/29 04:05:32;;;;;;;8.50;2.90;;;;;;;;;;5052471;28;20360;-56
2020/12/29 04:07:59;;;;;;;6.37;2.63;;;;;;;;;;5052238;28;20333;-56
2020/12/29 04:10:26;;;;;;;7.60;2.90;;;;;;;;;;5052254;28;20353;-56
2020/12/29 04:12:53;;;;;;;6.97;2.33;;;;;;;;;;5052245;28;20660;-56
2020/12/29 04:15:20;;;;;;;6.00;3.20;;;;;;;;;;5052375;28;20649;-56
2020/12/29 04:17:47;;;;;;;6.00;2.60;;;;;;;;;;5052342;28;20254;-56
2020/12/29 04:20:14;;;;;;;6.43;2.83;;;;;;;;;;5052262;28;20771;-56
2020/12/29 04:22:42;;;;;;;5.63;2.37;;;;;;;;;;5053785;28;20250;-56
2020/12/29 04:25:09;;;;;;;6.23;2.83;;;;;;;;;;5055921;28;20268;-56
2020/12/29 04:27:37;;;;;;;7.93;3.30;;;;;;;;;;5038008;28;20312;-56
2020/12/29 04:30:07;;;;;;;8.57;3.33;;;;;;;;;;5055711;28;20641;-56
2020/12/29 04:32:34;;;;;;;6.37;2.90;;;;;;;;;;5055785;28;20254;-56
2020/12/29 04:35:08;;;;;;;8.30;2.73;;;;;;;;;;5055635;28;20273;-56
2020/12/29 04:37:35;;;;;;;7.27;3.03;;;;;;;;;;5055818;28;20616;-56
2020/12/29 04:40:02;;;;;;;5.57;2.63;;;;;;;;;;5055742;28;20262;-56
2020/12/29 04:42:29;;;;;;;9.87;3.77;;;;;;;;;;5055764;28;20254;-56
2020/12/29 04:44:56;;;;;;;5.90;3.37;;;;;;;;;;5055644;28;20747;-56
2020/12/29 04:47:28;;;;;;;9.43;3.30;;;;;;;;;;5055591;28;20307;-56
2020/12/29 04:49:56;;;;;;;6.63;2.70;;;;;;;;;;5055374;28;20293;-56
2020/12/29 04:52:23;;;;;;;43.47;5.70;;;;;;;;;;5055621;28;20365;-56
2020/12/29 04:54:52;;;;;;;9.87;3.83;;;;;;;;;;5055308;28;20250;-56
2020/12/29 04:57:18;;;;;;;14.57;4.00;;;;;;;;;;5055352;28;20261;-56
2020/12/29 04:59:46;;;;;;;6.87;3.40;;;;;;;;;;5055235;28;20254;-56
2020/12/29 05:02:13;;;;;;;7.40;3.70;;;;;;;;;;5055165;28;20257;-56
2020/12/29 05:04:39;;;;;;;8.10;3.40;;;;;;;;;;5055239;28;20746;-56
2020/12/29 05:07:06;;;;;;;8.27;3.53;;;;;;;;;;5055215;28;20250;-56
2020/12/29 05:09:34;;;;;;;8.00;3.50;;;;;;;;;;5054932;28;20640;-56
2020/12/29 05:12:01;;;;;;;6.13;3.30;;;;;;;;;;5055207;28;20261;-56
2020/12/29 05:14:28;;;;;;;12.20;3.20;;;;;;;;;;5055146;28;20254;-56
2020/12/29 05:16:56;;;;;;;7.43;3.10;;;;;;;;;;5055259;28;20254;-56
2020/12/29 05:19:23;;;;;;;10.47;3.20;;;;;;;;;;5055192;28;20266;-56
2020/12/29 05:21:51;;;;;;;7.37;2.97;;;;;;;;;;5054869;28;20262;-56
2020/12/29 05:24:21;;;;;;;8.37;3.40;;;;;;;;;;5054846;28;20728;-56
2020/12/29 05:26:49;;;;;;;7.87;3.83;;;;;;;;;;5054761;28;20324;-56
2020/12/29 05:29:16;;;;;;;6.70;3.33;;;;;;;;;;5054757;28;20289;-56
2020/12/29 05:31:44;;;;;;;8.63;2.60;;;;;;;;;;5054868;28;20269;-56
2020/12/29 05:34:22;;;;;;;5.53;3.33;;;;;;;;;;5054158;28;20341;-56
2020/12/29 05:36:49;;;;;;;7.00;3.60;;;;;;;;;;5054609;28;20246;-56
2020/12/29 05:39:16;;;;;;;10.10;3.70;;;;;;;;;;5054499;28;20258;-56
2020/12/29 05:41:45;;;;;;;8.03;3.77;;;;;;;;;;5054550;28;20247;-56
2020/12/29 05:44:14;;;;;;;5.37;2.37;;;;;;;;;;5054435;28;20273;-56
2020/12/29 05:46:41;;;;;;;8.90;2.87;;;;;;;;;;5054436;28;20257;-56
2020/12/29 05:49:08;;;;;;;7.30;2.93;;;;;;;;;;5054055;28;20293;-56
2020/12/29 05:51:34;;;;;;;6.67;2.43;;;;;;;;;;5054546;28;20306;-56
2020/12/29 05:54:02;;;;;;;6.83;2.37;;;;;;;;;;5054313;28;20257;-56
2020/12/29 05:56:30;;;;;;;5.50;2.53;;;;;;;;;;5054263;28;20281;-56
2020/12/29 05:58:57;;;;;;;5.40;2.30;;;;;;;;;;5054194;28;20394;-56
2020/12/29 06:01:35;;;;;;;3.93;2.23;;;;;;;;;;5054142;28;20258;-55
2020/12/29 06:04:03;;;;;;;6.20;2.43;;;;;;;;;;5054376;28;20253;-55
2020/12/29 06:06:32;;;;;;;8.50;2.43;;;;;;;;;;5054290;28;20262;-55
2020/12/29 06:09:04;;;;;;;4.70;2.77;;;;;;;;;;5054018;28;20313;-55
2020/12/29 06:11:37;;;;;;;5.00;2.33;;;;;;;;;;5053926;28;20771;-55
2020/12/29 06:14:07;;;;;;;4.87;2.60;;;;;;;;;;5053900;28;20257;-55
2020/12/29 06:16:38;;;;;;;4.00;1.90;;;;;;;;;;5053792;28;20258;-55
2020/12/29 06:19:10;;;;;;;3.87;2.30;;;;;;;;;;5053812;28;20344;-55
2020/12/29 06:21:37;;;;;;;6.53;2.53;;;;;;;;;;5053662;28;20289;-56
2020/12/29 06:24:04;;;;;;;4.90;2.50;;;;;;;;;;5053677;28;20312;-55
2020/12/29 06:26:33;;;;;;;7.03;2.50;;;;;;;;;;5053731;28;20778;-55
2020/12/29 06:29:03;;;;;;;5.27;2.13;;;;;;;;;;5053651;28;20301;-55
2020/12/29 06:31:30;;;;;;;7.20;2.27;;;;;;;;;;5053579;28;20768;-55
2020/12/29 06:34:03;;;;;;;5.27;2.47;;;;;;;;;;5053568;28;20250;-56
2020/12/29 06:36:30;;;;;;;6.53;1.93;;;;;;;;;;5053527;28;20636;-56
2020/12/29 06:39:03;;;;;;;3.37;1.90;;;;;;;;;;5053638;28;20250;-56
2020/12/29 06:41:32;;;;;;;4.87;1.87;;;;;;;;;;5053512;28;20265;-56
2020/12/29 06:43:58;;;;;;;4.50;2.10;;;;;;;;;;5053416;28;20308;-56
2020/12/29 06:46:28;;;;;;;4.60;2.03;;;;;;;;;;5052518;28;20341;-56
2020/12/29 06:48:58;;;;;;;4.30;2.17;;;;;;;;;;5053160;28;20284;-56
2020/12/29 06:51:26;;;;;;;6.67;2.20;;;;;;;;;;5053385;28;20768;-56
2020/12/29 06:53:52;;;;;;;5.73;2.10;;;;;;;;;;5053135;28;20296;-56
2020/12/29 06:56:19;;;;;;;3.73;1.90;;;;;;;;;;5053151;28;20258;-55
2020/12/29 06:58:46;;;;;;;3.30;1.80;;;;;;;;;;5053188;28;20254;-55
2020/12/29 07:01:22;;;;;;;4.83;2.40;;;;;;;;;;5053031;28;20602;-56
2020/12/29 07:03:49;;;;;;;7.17;2.37;;;;;;;;;;5053015;28;20262;-56
2020/12/29 07:06:16;;;;;;;4.20;2.10;;;;;;;;;;5052960;28;20250;-56
2020/12/29 07:08:43;;;;;;;4.67;2.40;;;;;;;;;;5052786;28;20282;-56
2020/12/29 07:11:19;;;;;;;5.43;2.37;;;;;;;;;;5052998;28;20352;-56
2020/12/29 07:13:47;;;;;;;4.97;2.33;;;;;;;;;;5053125;28;20250;-56
2020/12/29 07:16:13;;;;;;;5.30;3.00;;;;;;;;;;5052865;28;20282;-56
2020/12/29 07:18:44;;;;;;;4.80;2.27;;;;;;;;;;5052793;28;20258;-56
2020/12/29 07:21:26;;;;;;;6.33;2.97;;;;;;;;;;5052916;28;20258;-56
2020/12/29 07:23:53;;;;;;;5.57;2.90;;;;;;;;;;5052816;28;20295;-55
2020/12/29 07:26:21;;;;;;;5.23;2.67;;;;;;;;;;5052699;28;20262;-55
2020/12/29 07:28:51;;;;;;;5.13;2.20;;;;;;;;;;5052576;28;20286;-55
2020/12/29 07:31:18;;;;;;;4.37;2.23;;;;;;;;;;5052703;28;20262;-56
2020/12/29 07:33:49;;;;;;;6.17;2.53;;;;;;;;;;5052730;28;20750;-55
2020/12/29 07:36:19;;;;;;;6.37;2.50;;;;;;;;;;5052675;28;20663;-56
2020/12/29 07:38:49;;;;;;;5.47;2.30;;;;;;;;;;5052589;28;20261;-56
2020/12/29 07:41:19;;;;;;;3.83;2.40;;;;;;;;;;5052615;28;20755;-55
2020/12/29 07:43:46;;;;;;;9.70;2.37;;;;;;;;;;5052721;28;20250;-56
2020/12/29 07:46:14;;;;;;;4.60;2.40;;;;;;;;;;5052688;28;20265;-56
2020/12/29 07:48:41;;;;;;;4.90;2.17;;;;;;;;;;5052365;28;20370;-55
2020/12/29 07:51:08;;;;;;;5.07;2.50;;;;;;;;;;5052627;28;20951;-56
2020/12/29 07:53:35;;;;;;;7.80;2.40;;;;;;;;;;5052536;28;20250;-55
2020/12/29 07:56:02;;;;;;;4.87;1.97;;;;;;;;;;5051920;28;20341;-55
2020/12/29 07:58:29;;;;;;;6.47;2.37;;;;;;;;;;5055388;28;20254;-55
2020/12/29 08:00:55;;;;;;;6.13;3.13;;;;;;;;;;5056506;28;20250;-55
2020/12/29 08:03:22;;;;;;;6.23;3.07;;;;;;;;;;5056378;28;20253;-55
2020/12/29 08:05:49;;;;;;;5.83;3.00;;;;;;;;;;5056570;28;20286;-55
2020/12/29 08:08:17;;;;;;;6.37;2.77;;;;;;;;;;5056123;28;20339;-55
2020/12/29 08:10:47;;;;;;;5.00;2.50;;;;;;;;;;5056258;28;20265;-55
2020/12/29 08:13:15;;;;;;;5.07;2.47;;;;;;;;;;5056191;28;20246;-55
2020/12/29 08:15:42;;;;;;;5.73;3.13;;;;;;;;;;5056454;28;20250;-55
2020/12/29 08:18:27;;;;;;;6.03;2.73;;;;;;;;;;5056129;28;20257;-55
2020/12/29 08:20:57;;;;;;;7.38;3.10;;;;;;;;;;5056083;28;20331;-56
2020/12/29 08:23:25;;;;;;;5.67;2.10;;;;;;;;;;5056168;28;20028;-56
2020/12/29 08:25:55;;;;;;;5.20;2.67;;;;;;;;;;5055976;28;20617;-56
2020/12/29 08:28:23;;;;;;;4.83;2.40;;;;;;;;;;5055788;28;20254;-55
2020/12/29 08:30:50;;;;;;;4.87;2.20;;;;;;;;;;5055820;28;20320;-56
2020/12/29 08:33:20;;;;;;;3.40;1.73;;;;;;;;;;5055916;28;20285;-56
2020/12/29 08:35:48;;;;;;;5.43;2.13;;;;;;;;;;5055910;28;20294;-56
2020/12/29 08:38:33;;;;;;;4.87;2.20;;;;;;;;;;5055691;28;20256;-55
2020/12/29 08:41:08;;;;;;;3.85;1.88;;;;;;;;;;5055666;28;20736;-56
2020/12/29 08:43:45;;;;;;;3.90;2.00;;;;;;;;;;5055605;28;20039;-56
2020/12/29 08:46:13;;;;;;;5.67;2.10;;;;;;;;;;5055722;28;20265;-55
2020/12/29 08:48:41;;;;;;;5.13;2.50;;;;;;;;;;5055343;28;20274;-55
2020/12/29 08:51:18;;;;;;;4.30;2.10;;;;;;;;;;5055587;28;20736;-55
2020/12/29 08:53:45;;;;;;;3.73;2.27;;;;;;;;;;5055474;28;20261;-55
2020/12/29 08:56:27;;;;;;;4.50;1.90;;;;;;;;;;5055378;28;20262;-56
2020/12/29 08:58:54;;;;;;;6.33;1.90;;;;;;;;;;5055416;28;20258;-56
2020/12/29 09:01:35;;;;;;;3.63;1.63;;;;;;;;;;5055263;28;20303;-56
2020/12/29 09:04:20;;;;;;;2.90;1.70;;;;;;;;;;5055229;28;20661;-55
2020/12/29 09:06:47;;;;;;;3.85;1.90;;;;;;;;;;5055208;28;20300;-55
2020/12/29 09:09:14;;;;;;;4.30;2.10;;;;;;;;;;5054023;28;20122;-55
2020/12/29 09:11:41;;;;;;;5.27;2.00;;;;;;;;;;5055097;28;20756;-55
2020/12/29 09:14:07;;;;;;;5.43;2.10;;;;;;;;;;5055085;28;20752;-56
2020/12/29 09:16:34;;;;;;;3.30;1.73;;;;;;;;;;5055117;28;20257;-55
2020/12/29 09:19:13;;;;;;;4.83;2.20;;;;;;;;;;5054823;28;20261;-55
2020/12/29 09:21:40;;;;;;;3.53;1.60;;;;;;;;;;5054873;28;20255;-55
2020/12/29 09:24:07;;;;;;;3.50;1.70;;;;;;;;;;5054855;28;20258;-55
2020/12/29 09:26:48;;;;;;;3.43;1.50;;;;;;;;;;5055042;28;20250;-55
2020/12/29 09:29:21;;;;;;;4.67;1.83;;;;;;;;;;5054617;28;20290;-56
2020/12/29 09:31:56;;;;;;;3.50;1.97;;;;;;;;;;5054674;28;20272;-55
2020/12/29 09:34:24;;;;;;;6.73;2.27;;;;;;;;;;5054712;28;20254;-55
2020/12/29 09:36:51;;;;;;;7.40;2.20;;;;;;;;;;5054883;28;20265;-55
2020/12/29 09:39:17;;;;;;;2.87;1.50;;;;;;;;;;5054525;28;20285;-55
2020/12/29 09:41:44;;;;;;;2.53;1.30;;;;;;;;;;5054650;28;20729;-55
2020/12/29 09:44:11;;;;;;;6.93;1.60;;;;;;;;;;5054524;28;20258;-55
2020/12/29 09:46:39;;;;;;;4.60;2.40;;;;;;;;;;5054580;28;20254;-55
2020/12/29 09:49:06;;;;;;;6.10;2.50;;;;;;;;;;5054142;28;20353;-55
2020/12/29 09:51:33;;;;;;;5.63;1.70;;;;;;;;;;5054497;28;20916;-55
2020/12/29 09:54:00;;;;;;;4.73;2.33;;;;;;;;;;5054304;28;20246;-55
2020/12/29 09:56:28;;;;;;;5.33;1.97;;;;;;;;;;5054356;28;20265;-55
2020/12/29 09:58:55;;;;;;;4.87;2.60;;;;;;;;;;5054159;28;20325;-55
2020/12/29 10:01:21;;;;;;;4.00;2.00;;;;;;;;;;5054271;28;20254;-55
2020/12/29 10:03:48;;;;;;;4.10;2.07;;;;;;;;;;5054259;28;20278;-55
2020/12/29 10:06:15;;;;;;;3.83;1.90;;;;;;;;;;5054106;28;20262;-55
2020/12/29 10:08:42;;;;;;;3.63;1.73;;;;;;;;;;5053993;28;20277;-55
2020/12/29 10:11:11;;;;;;;3.80;1.90;;;;;;;;;;5053997;28;20266;-55
2020/12/29 10:13:38;;;;;;;4.60;2.23;;;;;;;;;;5053990;28;20242;-55
2020/12/29 10:16:05;;;;;;;3.83;1.90;;;;;;;;;;5053902;28;20582;-55
2020/12/29 10:18:32;;;;;;;2.60;1.47;;;;;;;;;;5053710;28;20242;-55
2020/12/29 10:20:59;;;;;;;4.43;1.60;;;;;;;;;;5053663;28;20333;-55
2020/12/29 10:23:25;;;;;;;3.10;1.40;;;;;;;;;;5053726;28;20246;-55
2020/12/29 10:25:53;;;;;;;3.67;1.97;;;;;;;;;;5054353;28;20254;-55
2020/12/29 10:28:19;;;;;;;3.80;2.00;;;;;;;;;;5053692;28;20258;-55
2020/12/29 10:30:49;;;;;;;4.43;2.10;;;;;;;;;;5053689;28;20265;-55
2020/12/29 10:33:16;;;;;;;3.40;1.23;;;;;;;;;;5049611;28;20257;-55
2020/12/29 10:35:43;;;;;;;3.27;1.90;;;;;;;;;;5053615;28;20752;-55
2020/12/29 10:38:10;;;;;;;3.10;1.47;;;;;;;;;;5053469;28;20329;-55
2020/12/29 10:40:36;;;;;;;3.37;1.43;;;;;;;;;;5053422;28;20359;-55
2020/12/29 10:43:03;;;;;;;2.83;1.30;;;;;;;;;;5053375;28;20246;-55
2020/12/29 10:45:30;;;;;;;3.13;1.70;;;;;;;;;;5053482;28;20293;-55
2020/12/29 10:47:57;;;;;;;2.43;1.40;;;;;;;;;;5053234;28;20281;-56
2020/12/29 10:50:24;;;;;;;3.60;1.57;;;;;;;;;;5053119;28;20289;-55
2020/12/29 10:52:50;;;;;;;3.30;1.47;;;;;;;;;;5053502;28;20374;-55
2020/12/29 10:55:17;;;;;;;4.40;1.60;;;;;;;;;;5053276;28;20685;-56
2020/12/29 10:57:44;;;;;;;3.40;1.60;;;;;;;;;;5053062;28;20261;-55
2020/12/29 11:00:11;;;;;;;3.23;1.60;;;;;;;;;;5053073;28;20292;-55
2020/12/29 11:02:39;;;;;;;6.17;2.00;;;;;;;;;;5051954;28;20687;-56
2020/12/29 11:05:05;;;;;;;5.23;1.90;;;;;;;;;;5053027;28;20250;-55
2020/12/29 11:07:32;;;;;;;3.57;1.50;;;;;;;;;;5053041;28;20713;-55
2020/12/29 11:09:59;;;;;;;5.73;1.80;;;;;;;;;;5053042;28;20358;-55
2020/12/29 11:12:26;;;;;;;3.73;1.30;;;;;;;;;;5052899;28;20278;-55
2020/12/29 11:14:54;;;;;;;3.23;1.47;;;;;;;;;;5053129;28;20254;-55
2020/12/29 11:17:22;;;;;;;3.40;1.70;;;;;;;;;;5052781;28;20319;-55
2020/12/29 11:19:49;;;;;;;2.90;1.63;;;;;;;;;;5052843;28;20261;-55
2020/12/29 11:22:15;;;;;;;2.63;1.43;;;;;;;;;;5052750;28;20286;-55
2020/12/29 11:24:43;;;;;;;6.80;1.27;;;;;;;;;;5052790;28;20254;-55
2020/12/29 11:27:10;;;;;;;2.57;1.40;;;;;;;;;;5052781;28;20424;-55
2020/12/29 11:29:37;;;;;;;6.40;1.70;;;;;;;;;;5052496;28;20628;-56
2020/12/29 11:32:03;;;;;;;3.33;1.40;;;;;;;;;;5052209;28;20261;-55
2020/12/29 11:34:30;;;;;;;2.83;1.27;;;;;;;;;;5052589;28;20616;-55
2020/12/29 11:36:57;;;;;;;2.33;1.27;;;;;;;;;;5052650;28;20289;-54
2020/12/29 11:39:24;;;;;;;2.42;1.40;;;;;;;;;;5052724;28;20242;-55
2020/12/29 11:41:52;;;;;;;3.42;1.63;;;;;;;;;;5052833;28;20374;-55
2020/12/29 11:44:19;;;;;;;4.57;1.43;;;;;;;;;;5052498;28;20036;-55
2020/12/29 11:46:46;;;;;;;2.87;1.20;;;;;;;;;;5052661;28;20448;-55
2020/12/29 11:49:13;;;;;;;3.10;1.23;;;;;;;;;;5052267;28;20748;-55
2020/12/29 11:51:39;;;;;;;2.25;1.10;;;;;;;;;;5052592;28;20368;-55
2020/12/29 11:54:06;;;;;;;2.83;1.50;;;;;;;;;;5052443;28;20408;-55
2020/12/29 11:56:33;;;;;;;5.67;2.37;;;;;;;;;;5052523;28;20265;-56
2020/12/29 11:59:00;;;;;;;4.07;1.87;;;;;;;;;;5052294;28;20285;-55
2020/12/29 12:01:26;;;;;;;3.57;1.80;;;;;;;;;;5052414;28;20258;-56
2020/12/29 12:03:53;;;;;;;3.30;1.50;;;;;;;;;;5052446;28;20289;-56
2020/12/29 12:06:20;;;;;;;7.10;1.83;;;;;;;;;;5052476;28;20246;-56
2020/12/29 12:08:49;;;;;;;3.70;1.40;;;;;;;;;;5052210;28;20116;-56
2020/12/29 12:11:18;;;;;;;2.87;1.33;;;;;;;;;;5052289;28;20032;-55
2020/12/29 12:13:44;;;;;;;2.33;1.20;;;;;;;;;;5052334;28;20308;-56
2020/12/29 12:16:11;;;;;;;2.37;1.50;;;;;;;;;;5052194;28;20266;-56
2020/12/29 12:18:38;;;;;;;3.83;1.85;;;;;;;;;;5052263;28;20250;-56
2020/12/29 12:21:05;;;;;;;3.58;1.52;;;;;;;;;;5052453;28;20079;-55
2020/12/29 12:23:32;;;;;;;3.73;1.50;;;;;;;;;;5052321;28;20021;-55
2020/12/29 12:25:58;;;;;;;3.72;1.63;;;;;;;;;;5052225;28;20262;-56
2020/12/29 12:28:27;;;;;;;3.43;1.57;;;;;;;;;;5052145;28;20017;-55
2020/12/29 12:30:54;;;;;;;4.45;1.45;;;;;;;;;;5052211;28;20596;-55
2020/12/29 12:33:21;;;;;;;3.80;1.60;;;;;;;;;;5052375;28;20025;-55
2020/12/29 12:35:47;;;;;;;3.63;1.58;;;;;;;;;;5052204;28;20032;-55
2020/12/29 12:38:14;;;;;;;6.05;1.55;;;;;;;;;;5052145;28;20027;-55
2020/12/29 12:40:41;;;;;;;4.10;1.52;;;;;;;;;;5052119;28;20021;-55
2020/12/29 12:43:08;;;;;;;3.42;1.58;;;;;;;;;;5052063;28;20021;-55
2020/12/29 12:45:34;;;;;;;3.08;1.50;;;;;;;;;;5054762;28;20051;-55
2020/12/29 12:48:01;;;;;;;3.15;1.55;;;;;;;;;;5055443;28;20025;-55
2020/12/29 12:50:28;;;;;;;3.42;1.40;;;;;;;;;;5055341;28;20037;-55
2020/12/29 12:52:55;;;;;;;4.60;1.50;;;;;;;;;;5055674;28;20056;-55
2020/12/29 12:55:23;;;;;;;2.92;1.65;;;;;;;;;;5055512;28;20031;-55
2020/12/29 12:57:49;;;;;;;3.20;1.48;;;;;;;;;;5055323;28;20112;-55
2020/12/29 13:00:16;;;;;;;18.60;3.17;;;;;;;;;;5055249;28;20036;-55
2020/12/29 13:02:43;;;;;;;4.88;1.60;;;;;;;;;;5055270;28;20025;-55
2020/12/29 13:05:10;;;;;;;4.07;1.63;;;;;;;;;;5055230;28;20491;-55
2020/12/29 13:07:37;;;;;;;4.07;1.70;;;;;;;;;;5055088;28;20461;-55
2020/12/29 13:10:05;;;;;;;3.03;1.90;;;;;;;;;;5055116;28;20476;-55
2020/12/29 13:12:31;;;;;;;3.60;1.52;;;;;;;;;;5055148;28;20059;-55
2020/12/29 13:14:58;;;;;;;7.60;1.80;;;;;;;;;;5055010;28;20033;-55
2020/12/29 13:17:25;;;;;;;6.93;2.10;;;;;;;;;;5054969;28;20020;-55
2020/12/29 13:19:52;;;;;;;3.30;1.67;;;;;;;;;;5055190;28;20032;-55
2020/12/29 13:22:18;;;;;;;3.90;1.42;;;;;;;;;;5054978;28;20028;-54
2020/12/29 13:24:45;;;;;;;2.65;1.45;;;;;;;;;;5054970;28;20036;-55
2020/12/29 13:27:12;;;;;;;4.95;1.80;;;;;;;;;;5054812;28;20033;-54
2020/12/29 13:29:39;;;;;;;4.82;1.80;;;;;;;;;;5054759;28;20500;-54
2020/12/29 13:32:06;;;;;;;7.00;1.90;;;;;;;;;;5054760;28;20028;-55
2020/12/29 13:34:32;;;;;;;3.08;1.85;;;;;;;;;;5054644;28;20025;-55
2020/12/29 13:37:00;;;;;;;2.53;1.38;;;;;;;;;;5054607;28;20025;-55
2020/12/29 13:39:29;;;;;;;3.38;1.63;;;;;;;;;;5054670;28;20059;-55
2020/12/29 13:41:59;;;;;;;10.10;2.10;;;;;;;;;;5054501;28;20028;-55
2020/12/29 13:44:26;;;;;;;7.68;2.17;;;;;;;;;;5054436;28;20360;-55
2020/12/29 13:46:53;;;;;;;4.10;2.28;;;;;;;;;;5054365;28;20044;-55
2020/12/29 13:49:20;;;;;;;7.47;2.65;;;;;;;;;;5054595;28;20033;-55
2020/12/29 13:51:47;;;;;;;10.63;2.47;;;;;;;;;;5036329;28;20480;-55
2020/12/29 13:54:14;;;;;;;8.75;3.13;;;;;;;;;;5054096;28;20032;-55
2020/12/29 13:56:40;;;;;;;7.03;3.40;;;;;;;;;;5053670;28;20056;-55
2020/12/29 13:59:11;;;;;;;95.57;33.23;;;;;;;;;;5054167;28;20646;-55
2020/12/29 14:01:41;;;;;;;90.93;41.77;;;;;;;;;;5054421;28;20261;-55
2020/12/29 14:04:07;;;;;;;26.00;13.83;;;;;;;;;;5054209;28;20601;-55
2020/12/29 14:06:35;;;;;;;15.30;7.83;;;;;;;;;;5054032;28;20246;-55
2020/12/29 14:09:01;;;;;;;11.87;5.23;;;;;;;;;;5053870;28;20360;-55
2020/12/29 14:11:28;;;;;;;15.13;5.97;;;;;;;;;;5054263;28;20261;-55
2020/12/29 14:13:55;;;;;;;13.77;6.00;;;;;;;;;;5053961;28;20289;-55
2020/12/29 14:16:22;;;;;;;13.10;5.83;;;;;;;;;;5053779;28;20258;-55
2020/12/29 14:18:49;;;;;;;8.30;4.47;;;;;;;;;;5054002;28;20262;-55
2020/12/29 14:21:15;;;;;;;15.47;3.93;;;;;;;;;;5053786;28;20308;-55
2020/12/29 14:23:42;;;;;;;10.90;4.77;;;;;;;;;;5054026;28;20252;-55
2020/12/29 14:26:12;;;;;;;9.43;3.67;;;;;;;;;;5053609;28;20254;-55
2020/12/29 14:28:40;;;;;;;7.97;4.10;;;;;;;;;;5053420;28;20653;-55
2020/12/29 14:31:07;;;;;;;12.03;5.47;;;;;;;;;;5053551;28;20258;-55
2020/12/29 14:33:34;;;;;;;7.03;3.97;;;;;;;;;;5053569;28;20308;-55
2020/12/29 14:36:02;;;;;;;11.90;4.83;;;;;;;;;;5053610;28;20273;-55
2020/12/29 14:38:29;;;;;;;10.57;5.13;;;;;;;;;;5053393;28;20613;-56
2020/12/29 14:40:56;;;;;;;13.10;6.60;;;;;;;;;;5053453;28;20266;-56
2020/12/29 14:43:23;;;;;;;19.83;8.20;;;;;;;;;;5053465;28;20246;-56